createdAt,value
2023-03-26T00:01:49.742Z,2.90
2023-03-26T00:04:19.788Z,2.20
2023-03-26T00:06:48.842Z,2.53
2023-03-26T00:09:17.750Z,2.37
2023-03-26T00:11:47.332Z,2.70
2023-03-26T00:14:17.878Z,2.77
2023-03-26T00:16:47.580Z,2.60
2023-03-26T00:19:16.677Z,2.53
2023-03-26T00:21:44.613Z,2.17
2023-03-26T00:24:16.260Z,2.60
2023-03-26T00:26:53.046Z,2.63
2023-03-26T00:29:22.844Z,2.73
2023-03-26T00:31:50.908Z,2.70
2023-03-26T00:34:19.212Z,1.83
2023-03-26T00:36:47.850Z,3.30
2023-03-26T00:39:17.790Z,2.47
2023-03-26T00:41:47.108Z,2.67
2023-03-26T00:44:15.084Z,2.77
2023-03-26T00:46:43.118Z,2.30
2023-03-26T00:49:14.563Z,2.33
2023-03-26T00:51:43.166Z,2.63
2023-03-26T00:54:11.122Z,2.40
2023-03-26T00:56:39.139Z,2.60
2023-03-26T00:59:09.276Z,2.23
2023-03-26T01:01:37.648Z,2.40
2023-03-26T01:04:31.073Z,2.40
2023-03-26T01:07:04.034Z,2.67
2023-03-26T01:09:36.036Z,2.20
2023-03-26T01:12:07.852Z,3.20
2023-03-26T01:14:37.108Z,2.53
2023-03-26T01:17:07.725Z,2.67
2023-03-26T01:19:44.691Z,2.60
2023-03-26T01:22:16.385Z,2.27
2023-03-26T01:24:52.874Z,2.87
2023-03-26T01:27:38.894Z,2.70
2023-03-26T01:30:13.842Z,3.03
2023-03-26T01:32:57.826Z,2.37
2023-03-26T01:35:35.032Z,2.40
2023-03-26T01:38:11.656Z,3.20
2023-03-26T01:40:49.483Z,2.97
2023-03-26T01:43:27.287Z,2.70
2023-03-26T01:45:55.589Z,1.87
2023-03-26T01:48:31.486Z,3.07
2023-03-26T01:50:59.735Z,2.10
2023-03-26T01:53:28.190Z,2.40
2023-03-26T01:56:06.937Z,2.40
2023-03-26T01:58:42.676Z,2.73
2023-03-26T02:01:24.309Z,2.20
2023-03-26T02:03:57.672Z,2.57
2023-03-26T02:06:30.632Z,2.37
2023-03-26T02:09:02.931Z,2.90
2023-03-26T02:11:35.987Z,2.90
2023-03-26T02:14:05.351Z,2.87
2023-03-26T02:16:33.397Z,2.20
2023-03-26T02:19:01.279Z,3.07
2023-03-26T02:21:29.516Z,2.63
2023-03-26T02:24:03.178Z,2.30
2023-03-26T02:26:34.713Z,2.63
2023-03-26T02:29:03.144Z,2.60
2023-03-26T02:31:31.127Z,3.07
2023-03-26T02:33:59.182Z,2.60
2023-03-26T02:36:28.417Z,2.50
2023-03-26T02:38:58.227Z,2.00
2023-03-26T02:41:26.305Z,2.47
2023-03-26T02:43:55.702Z,2.40
2023-03-26T02:46:23.706Z,2.40
2023-03-26T02:48:52.063Z,2.57
2023-03-26T02:51:20.195Z,2.60
2023-03-26T02:53:48.403Z,2.63
2023-03-26T02:56:16.366Z,2.63
2023-03-26T02:58:44.337Z,2.23
2023-03-26T03:01:18.248Z,2.30
2023-03-26T03:03:48.714Z,2.37
2023-03-26T03:06:19.633Z,2.23
2023-03-26T03:08:47.587Z,2.37
2023-03-26T03:11:17.670Z,2.37
2023-03-26T03:13:46.492Z,2.30
2023-03-26T03:16:15.991Z,2.07
2023-03-26T03:18:43.887Z,2.27
2023-03-26T03:21:11.797Z,1.97
2023-03-26T03:23:39.748Z,2.67
2023-03-26T03:26:14.398Z,2.30
2023-03-26T03:28:42.472Z,2.00
2023-03-26T03:31:10.461Z,2.20
2023-03-26T03:33:41.492Z,2.10
2023-03-26T03:36:20.753Z,2.27
2023-03-26T03:38:50.719Z,2.20
2023-03-26T03:41:19.240Z,1.93
2023-03-26T03:43:47.342Z,2.53
2023-03-26T03:46:15.406Z,2.17
2023-03-26T03:48:49.665Z,1.97
2023-03-26T03:51:18.289Z,2.20
2023-03-26T03:53:46.238Z,1.80
2023-03-26T03:56:14.710Z,2.23
2023-03-26T03:58:45.481Z,2.20
2023-03-26T04:01:15.147Z,2.13
2023-03-26T04:03:46.549Z,2.57
2023-03-26T04:06:18.869Z,2.17
2023-03-26T04:08:47.310Z,2.07
2023-03-26T04:11:15.427Z,1.53
2023-03-26T04:13:44.042Z,2.17
2023-03-26T04:16:12.383Z,2.50
2023-03-26T04:18:40.594Z,2.40
2023-03-26T04:21:12.501Z,2.17
2023-03-26T04:23:42.324Z,2.07
2023-03-26T04:26:16.277Z,2.27
2023-03-26T04:28:47.336Z,2.00
2023-03-26T04:31:18.438Z,2.00
2023-03-26T04:33:48.252Z,2.50
2023-03-26T04:36:18.249Z,2.00
2023-03-26T04:38:49.157Z,1.77
2023-03-26T04:41:17.234Z,2.43
2023-03-26T04:43:50.418Z,1.70
2023-03-26T04:46:21.806Z,2.30
2023-03-26T04:48:50.453Z,2.50
2023-03-26T04:51:22.000Z,2.10
2023-03-26T04:53:53.400Z,2.30
2023-03-26T04:56:33.418Z,2.23
2023-03-26T04:59:02.961Z,2.10
2023-03-26T05:01:30.937Z,2.10
2023-03-26T05:03:59.565Z,2.20
2023-03-26T05:06:30.338Z,2.37
2023-03-26T05:08:58.306Z,2.67
2023-03-26T05:11:26.218Z,1.80
2023-03-26T05:13:54.234Z,2.10
2023-03-26T05:16:24.052Z,2.50
2023-03-26T05:18:52.556Z,2.03
2023-03-26T05:21:20.753Z,2.20
2023-03-26T05:23:50.325Z,1.97
2023-03-26T05:26:18.317Z,2.37
2023-03-26T05:28:46.230Z,2.33
2023-03-26T05:31:15.453Z,2.33
2023-03-26T05:33:43.592Z,2.03
2023-03-26T05:36:15.397Z,2.20
2023-03-26T05:38:47.270Z,1.80
2023-03-26T05:41:17.553Z,2.10
2023-03-26T05:43:47.247Z,2.00
2023-03-26T05:46:16.023Z,2.23
2023-03-26T05:48:44.059Z,2.17
2023-03-26T05:51:12.293Z,2.17
2023-03-26T05:53:40.416Z,2.17
2023-03-26T05:56:09.049Z,2.23
2023-03-26T05:58:38.939Z,2.53
2023-03-26T06:01:09.321Z,2.47
2023-03-26T06:03:40.263Z,2.20
2023-03-26T06:06:09.255Z,2.17
2023-03-26T06:08:37.614Z,2.00
2023-03-26T06:11:08.035Z,2.23
2023-03-26T06:13:36.259Z,2.60
2023-03-26T06:16:06.074Z,2.13
2023-03-26T06:18:34.142Z,2.10
2023-03-26T06:21:02.069Z,1.97
2023-03-26T06:23:30.018Z,2.77
2023-03-26T06:25:58.045Z,2.10
2023-03-26T06:28:26.363Z,2.37
2023-03-26T06:30:54.619Z,2.30
2023-03-26T06:33:24.676Z,2.73
2023-03-26T06:35:52.734Z,2.23
2023-03-26T06:38:20.853Z,2.00
2023-03-26T06:40:48.733Z,2.10
2023-03-26T06:43:16.738Z,2.57
2023-03-26T06:45:44.675Z,2.10
2023-03-26T06:48:12.568Z,2.17
2023-03-26T06:50:41.859Z,1.87
2023-03-26T06:53:11.293Z,2.27
2023-03-26T06:55:41.847Z,1.97
2023-03-26T06:58:12.903Z,1.97
2023-03-26T07:00:42.099Z,1.90
2023-03-26T07:03:11.314Z,2.07
2023-03-26T07:05:41.684Z,1.80
2023-03-26T07:08:09.729Z,2.00
2023-03-26T07:10:37.849Z,1.93
2023-03-26T07:13:05.822Z,1.50
2023-03-26T07:15:33.820Z,2.20
2023-03-26T07:18:01.964Z,1.57
2023-03-26T07:20:30.601Z,1.97
2023-03-26T07:23:01.012Z,1.93
2023-03-26T07:25:29.621Z,1.80
2023-03-26T07:28:07.949Z,2.53
2023-03-26T07:30:47.729Z,2.33
2023-03-26T07:33:22.579Z,2.20
2023-03-26T07:35:59.059Z,2.20
2023-03-26T07:38:43.262Z,2.00
2023-03-26T07:41:16.947Z,2.00
2023-03-26T07:44:08.826Z,2.17
2023-03-26T07:46:37.312Z,2.07
2023-03-26T07:49:06.258Z,1.70
2023-03-26T07:51:35.107Z,1.93
2023-03-26T07:54:05.201Z,2.20
2023-03-26T07:56:39.098Z,2.13
2023-03-26T07:59:16.485Z,2.23
2023-03-26T08:01:57.596Z,1.80
2023-03-26T08:04:44.165Z,2.23
2023-03-26T08:07:19.464Z,2.43
2023-03-26T08:09:59.295Z,2.30
2023-03-26T08:12:38.214Z,2.27
2023-03-26T08:15:14.949Z,1.80
2023-03-26T08:17:49.575Z,2.73
2023-03-26T08:20:28.440Z,2.10
2023-03-26T08:23:03.649Z,1.90
2023-03-26T08:25:37.942Z,2.03
2023-03-26T08:28:17.288Z,1.93
2023-03-26T08:30:46.964Z,2.37
2023-03-26T08:33:18.124Z,2.63
2023-03-26T08:35:47.314Z,2.30
2023-03-26T08:38:18.404Z,1.60
2023-03-26T08:41:19.283Z,4.03
2023-03-26T08:44:23.028Z,2.43
2023-03-26T08:47:12.917Z,2.07
2023-03-26T08:50:28.892Z,2.57
2023-03-26T08:53:27.580Z,2.20
2023-03-26T08:56:02.314Z,2.50
2023-03-26T08:59:07.647Z,2.17
2023-03-26T09:02:18.950Z,2.57
2023-03-26T09:05:26.445Z,2.27
2023-03-26T09:08:30.871Z,2.20
2023-03-26T09:11:32.287Z,1.73
2023-03-26T09:14:31.552Z,2.10
2023-03-26T09:17:47.535Z,1.63
2023-03-26T09:20:48.167Z,1.40
2023-03-26T09:23:34.258Z,1.60
2023-03-26T09:26:17.425Z,2.00
2023-03-26T09:29:26.699Z,1.37
2023-03-26T09:32:28.482Z,1.50
2023-03-26T09:35:13.652Z,1.60
2023-03-26T09:37:58.282Z,1.80
2023-03-26T09:40:37.151Z,2.03
2023-03-26T09:43:39.418Z,1.77
2023-03-26T09:46:21.790Z,1.60
2023-03-26T09:49:22.815Z,1.13
2023-03-26T09:52:16.044Z,1.30
2023-03-26T09:55:20.178Z,1.30
2023-03-26T09:58:06.157Z,1.23
2023-03-26T10:00:42.570Z,1.30
2023-03-26T10:03:34.863Z,1.10
2023-03-26T10:06:27.324Z,1.13
2023-03-26T10:09:18.836Z,1.27
2023-03-26T10:12:20.706Z,1.20
2023-03-26T10:14:58.908Z,1.13
2023-03-26T10:17:42.133Z,1.20
2023-03-26T10:20:38.698Z,1.43
2023-03-26T10:23:24.679Z,1.40
2023-03-26T10:26:12.831Z,1.67
2023-03-26T10:29:00.690Z,1.40
2023-03-26T10:31:43.795Z,1.60
2023-03-26T10:34:29.108Z,1.73
2023-03-26T10:37:08.542Z,1.90
2023-03-26T10:39:58.696Z,1.33
2023-03-26T10:42:43.230Z,1.43
2023-03-26T10:45:22.825Z,1.67
2023-03-26T10:48:42.596Z,1.57
2023-03-26T10:51:36.595Z,1.50
2023-03-26T10:54:13.449Z,1.17
2023-03-26T10:56:44.971Z,1.60
2023-03-26T10:59:14.781Z,1.50
2023-03-26T11:01:47.953Z,1.00
2023-03-26T11:04:27.322Z,1.40
2023-03-26T11:07:05.217Z,1.20
2023-03-26T11:09:45.327Z,1.40
2023-03-26T11:12:27.228Z,1.30
2023-03-26T11:15:08.770Z,1.40
2023-03-26T11:17:47.812Z,1.00
2023-03-26T11:20:21.108Z,0.97
2023-03-26T11:23:02.618Z,1.27
2023-03-26T11:25:41.295Z,1.40
2023-03-26T11:28:29.766Z,1.37
2023-03-26T11:31:03.063Z,1.50
2023-03-26T11:33:36.506Z,1.30
2023-03-26T11:36:08.880Z,1.20
2023-03-26T11:38:41.889Z,1.50
2023-03-26T11:41:16.304Z,1.57
2023-03-26T11:43:55.177Z,1.60
2023-03-26T11:46:25.972Z,1.20
2023-03-26T11:48:58.134Z,1.50
2023-03-26T11:51:31.254Z,1.67
2023-03-26T11:53:59.443Z,1.47
2023-03-26T11:56:32.565Z,1.37
2023-03-26T11:59:05.524Z,1.60
2023-03-26T12:01:44.500Z,1.37
2023-03-26T12:04:14.650Z,1.23
2023-03-26T12:06:53.833Z,1.27
2023-03-26T12:09:21.859Z,1.37
2023-03-26T12:11:55.701Z,1.10
2023-03-26T12:14:27.135Z,1.30
2023-03-26T12:17:04.002Z,1.37
2023-03-26T12:19:41.064Z,1.20
2023-03-26T12:22:30.549Z,1.50
2023-03-26T12:25:16.481Z,1.10
2023-03-26T12:27:48.858Z,1.23
2023-03-26T12:30:23.758Z,1.17
2023-03-26T12:32:53.589Z,1.00
2023-03-26T12:35:27.377Z,1.00
2023-03-26T12:37:57.944Z,0.80
2023-03-26T12:40:32.453Z,0.50
2023-03-26T12:44:52.690Z,0.53
2023-03-26T12:47:15.032Z,0.90
2023-03-26T12:48:43.914Z,0.40
2023-03-26T12:51:20.778Z,0.50
2023-03-26T12:54:03.836Z,0.50
2023-03-26T12:56:38.556Z,0.70
2023-03-26T12:59:29.455Z,0.20
2023-03-26T13:02:07.795Z,0.50
2023-03-26T13:05:05.684Z,0.50
2023-03-26T13:07:47.880Z,0.47
2023-03-26T13:10:43.054Z,0.67
2023-03-26T13:13:37.331Z,0.47
2023-03-26T13:16:14.561Z,0.40
2023-03-26T13:18:49.203Z,0.80
2023-03-26T13:21:28.573Z,0.70
2023-03-26T13:24:05.218Z,0.80
2023-03-26T13:26:47.514Z,0.57
2023-03-26T13:29:21.740Z,0.70
2023-03-26T13:31:58.895Z,0.50
2023-03-26T13:34:36.685Z,0.83
2023-03-26T13:37:12.804Z,0.57
2023-03-26T13:39:54.565Z,0.40
2023-03-26T13:42:44.746Z,0.77
2023-03-26T13:45:24.133Z,0.80
2023-03-26T13:47:57.306Z,0.70
2023-03-26T13:50:29.242Z,0.80
2023-03-26T13:53:02.409Z,0.73
2023-03-26T13:55:33.018Z,0.60
2023-03-26T13:58:06.014Z,0.70
2023-03-26T14:00:48.731Z,0.90
2023-03-26T14:03:26.844Z,1.07
2023-03-26T14:05:59.442Z,0.90
2023-03-26T14:08:32.884Z,0.83
2023-03-26T14:11:10.846Z,1.17
2023-03-26T14:13:44.676Z,1.00
2023-03-26T14:16:18.687Z,1.20
2023-03-26T14:18:58.275Z,1.30
2023-03-26T14:21:56.386Z,1.47
2023-03-26T14:24:52.683Z,1.53
2023-03-26T14:27:38.442Z,1.50
2023-03-26T14:30:29.265Z,1.53
2023-03-26T14:33:13.726Z,1.70
2023-03-26T14:35:50.492Z,1.50
2023-03-26T14:39:09.555Z,1.33
2023-03-26T14:41:48.650Z,1.50
2023-03-26T14:44:48.442Z,1.47
2023-03-26T14:47:18.938Z,1.40
2023-03-26T14:50:20.576Z,1.70
2023-03-26T14:52:52.106Z,1.50
2023-03-26T14:55:45.080Z,1.40
2023-03-26T14:58:54.896Z,1.27
2023-03-26T15:01:26.765Z,1.20
2023-03-26T15:04:43.987Z,1.30
2023-03-26T15:07:41.001Z,1.40
2023-03-26T15:10:55.539Z,1.23
2023-03-26T15:13:45.663Z,1.30
2023-03-26T15:16:28.246Z,1.00
2023-03-26T15:19:23.088Z,1.20
2023-03-26T15:22:35.871Z,0.80
2023-03-26T15:25:35.052Z,0.80
2023-03-26T15:28:38.653Z,0.90
2023-03-26T15:31:42.712Z,0.80
2023-03-26T15:34:48.713Z,0.70
2023-03-26T15:37:58.629Z,0.70
2023-03-26T15:40:45.762Z,0.90
2023-03-26T15:43:15.384Z,0.70
2023-03-26T15:45:47.499Z,0.80
2023-03-26T15:48:40.945Z,0.70
2023-03-26T15:51:32.176Z,0.73
2023-03-26T15:54:23.871Z,0.80
2023-03-26T15:57:16.723Z,0.50
2023-03-26T16:00:00.382Z,0.43
2023-03-26T16:02:37.980Z,0.70
2023-03-26T16:05:28.084Z,0.80
2023-03-26T16:08:05.661Z,0.90
2023-03-26T16:10:40.877Z,0.87
2023-03-26T16:13:38.938Z,0.80
2023-03-26T16:16:35.628Z,0.90
2023-03-26T16:19:32.871Z,0.57
2023-03-26T16:22:02.931Z,0.70
2023-03-26T16:24:34.606Z,0.73
2023-03-26T16:27:32.236Z,0.70
2023-03-26T16:30:19.496Z,0.80
2023-03-26T16:32:56.104Z,0.57
2023-03-26T16:35:56.873Z,0.60
2023-03-26T16:38:27.301Z,0.70
2023-03-26T16:41:03.269Z,0.67
2023-03-26T16:43:51.189Z,0.70
2023-03-26T16:46:29.950Z,0.70
2023-03-26T16:49:03.907Z,0.70
2023-03-26T16:51:46.282Z,0.97
2023-03-26T16:54:24.219Z,0.70
2023-03-26T16:56:59.509Z,0.77
2023-03-26T16:59:42.188Z,0.87
2023-03-26T17:02:22.041Z,0.80
2023-03-26T17:04:55.826Z,1.13
2023-03-26T17:07:30.049Z,0.97
2023-03-26T17:10:08.736Z,0.93
2023-03-26T17:12:41.147Z,1.20
2023-03-26T17:15:19.771Z,0.70
2023-03-26T17:18:02.067Z,0.77
2023-03-26T17:20:36.998Z,1.10
2023-03-26T17:23:18.614Z,0.90
2023-03-26T17:25:58.564Z,3.13
2023-03-26T17:28:50.429Z,2.33
2023-03-26T17:31:27.173Z,1.77
2023-03-26T17:34:16.808Z,1.23
2023-03-26T17:36:45.955Z,1.30
2023-03-26T17:39:23.132Z,1.10
2023-03-26T17:42:18.698Z,1.40
2023-03-26T17:44:51.559Z,1.57
2023-03-26T17:47:27.470Z,1.57
2023-03-26T17:50:02.176Z,1.13
2023-03-26T17:52:41.690Z,0.97
2023-03-26T17:55:14.647Z,0.90
2023-03-26T17:57:46.274Z,1.10
2023-03-26T18:00:20.460Z,1.10
2023-03-26T18:02:54.118Z,1.10
2023-03-26T18:05:27.509Z,1.07
2023-03-26T18:08:19.182Z,1.23
2023-03-26T18:11:15.774Z,1.40
2023-03-26T18:14:12.916Z,1.70
2023-03-26T18:16:43.634Z,2.07
2023-03-26T18:19:19.050Z,2.30
2023-03-26T18:21:50.871Z,2.10
2023-03-26T18:24:24.429Z,2.00
2023-03-26T18:26:58.358Z,2.57
2023-03-26T18:29:28.436Z,2.60
2023-03-26T18:32:00.452Z,2.93
2023-03-26T18:34:31.531Z,3.07
2023-03-26T18:37:14.689Z,2.70
2023-03-26T18:39:42.856Z,2.97
2023-03-26T18:42:22.570Z,2.50
2023-03-26T18:44:51.667Z,2.87
2023-03-26T18:47:20.032Z,2.93
2023-03-26T18:49:51.025Z,2.60
2023-03-26T18:52:22.225Z,2.90
2023-03-26T18:54:53.493Z,2.60
2023-03-26T18:57:23.916Z,2.60
2023-03-26T18:59:54.153Z,2.60
2023-03-26T19:02:23.625Z,2.73
2023-03-26T19:04:54.329Z,2.17
2023-03-26T19:07:27.015Z,2.77
2023-03-26T19:09:56.590Z,2.67
2023-03-26T19:12:30.890Z,3.30
2023-03-26T19:15:04.615Z,2.60
2023-03-26T19:17:36.479Z,2.43
2023-03-26T19:20:07.546Z,3.13
2023-03-26T19:22:37.297Z,3.90
2023-03-26T19:25:06.534Z,3.40
2023-03-26T19:27:38.404Z,3.20
2023-03-26T19:30:07.581Z,3.87
2023-03-26T19:32:35.800Z,3.33
2023-03-26T19:35:05.142Z,3.33
2023-03-26T19:37:33.447Z,3.30
2023-03-26T19:40:15.524Z,3.50
2023-03-26T19:42:45.078Z,2.90
2023-03-26T19:45:17.735Z,2.83
2023-03-26T19:47:49.942Z,2.40
2023-03-26T19:50:26.269Z,2.50
2023-03-26T19:53:17.752Z,2.80
2023-03-26T19:55:57.296Z,2.03
2023-03-26T19:58:26.957Z,3.20
2023-03-26T20:00:56.265Z,2.60
2023-03-26T20:03:29.415Z,2.70
2023-03-26T20:05:57.548Z,2.47
2023-03-26T20:08:27.831Z,2.37
2023-03-26T20:10:59.187Z,2.43
2023-03-26T20:13:27.423Z,2.37
2023-03-26T20:16:05.511Z,2.73
2023-03-26T20:18:34.971Z,2.17
2023-03-26T20:21:03.024Z,2.33
2023-03-26T20:23:30.925Z,2.33
2023-03-26T20:26:00.251Z,1.87
2023-03-26T20:28:28.164Z,2.37
2023-03-26T20:30:56.345Z,2.47
2023-03-26T20:33:27.280Z,2.53
2023-03-26T20:35:56.820Z,2.10
2023-03-26T20:38:36.545Z,2.10
2023-03-26T20:41:10.555Z,1.93
2023-03-26T20:43:38.511Z,2.07
2023-03-26T20:46:07.156Z,2.20
2023-03-26T20:48:35.426Z,2.00
2023-03-26T20:51:04.740Z,2.50
2023-03-26T20:53:32.748Z,2.23
2023-03-26T20:56:01.950Z,1.90
2023-03-26T20:58:32.381Z,1.60
2023-03-26T21:01:01.838Z,2.10
2023-03-26T21:03:30.098Z,2.47
2023-03-26T21:06:01.010Z,2.00
2023-03-26T21:08:34.958Z,1.60
2023-03-26T21:11:03.856Z,2.17
2023-03-26T21:13:39.922Z,2.10
2023-03-26T21:16:09.170Z,1.93
2023-03-26T21:18:37.934Z,1.60
2023-03-26T21:21:21.513Z,1.73
2023-03-26T21:23:59.226Z,1.50
2023-03-26T21:26:31.321Z,1.57
2023-03-26T21:29:00.889Z,1.70
2023-03-26T21:31:36.688Z,1.90
2023-03-26T21:34:05.607Z,1.60
2023-03-26T21:36:35.095Z,1.73
2023-03-26T21:39:06.381Z,1.73
2023-03-26T21:41:43.628Z,2.00
2023-03-26T21:44:14.248Z,2.23
2023-03-26T21:46:43.721Z,2.07
2023-03-26T21:49:12.688Z,1.93
2023-03-26T21:51:41.480Z,1.40
2023-03-26T21:54:24.656Z,1.80
2023-03-26T21:57:11.541Z,1.80
2023-03-26T21:59:50.049Z,1.53
2023-03-26T22:02:25.655Z,2.00
2023-03-26T22:04:58.180Z,1.90
2023-03-26T22:07:34.079Z,1.97
2023-03-26T22:10:01.988Z,1.80
2023-03-26T22:12:30.117Z,2.20
2023-03-26T22:15:01.459Z,1.73
2023-03-26T22:17:29.588Z,1.83
2023-03-26T22:19:57.603Z,1.60
2023-03-26T22:22:26.099Z,2.20
2023-03-26T22:24:54.060Z,1.87
2023-03-26T22:27:21.968Z,2.00
2023-03-26T22:29:50.128Z,1.80
2023-03-26T22:32:19.446Z,2.10
2023-03-26T22:34:47.381Z,1.80
2023-03-26T22:37:16.199Z,1.93
2023-03-26T22:39:44.193Z,1.47
2023-03-26T22:42:12.192Z,2.30
2023-03-26T22:44:40.789Z,1.97
2023-03-26T22:47:09.324Z,2.03
2023-03-26T22:49:38.561Z,1.90
2023-03-26T22:52:07.088Z,2.20
2023-03-26T22:54:36.469Z,2.40
2023-03-26T22:57:05.065Z,1.83
2023-03-26T22:59:33.299Z,1.80
2023-03-26T23:02:01.226Z,2.33
2023-03-26T23:04:32.332Z,1.73
2023-03-26T23:07:01.766Z,1.80
2023-03-26T23:09:29.875Z,2.00
2023-03-26T23:12:00.480Z,1.80
2023-03-26T23:14:28.898Z,1.47
2023-03-26T23:16:57.177Z,1.53
2023-03-26T23:19:25.457Z,1.60
2023-03-26T23:21:53.414Z,1.50
2023-03-26T23:24:22.677Z,1.60
2023-03-26T23:26:51.378Z,1.60
2023-03-26T23:29:19.460Z,2.23
2023-03-26T23:31:47.932Z,1.63
2023-03-26T23:34:17.006Z,1.83
2023-03-26T23:36:45.489Z,2.23
2023-03-26T23:39:13.818Z,2.00
2023-03-26T23:41:43.791Z,1.77
2023-03-26T23:44:14.304Z,1.60
2023-03-26T23:46:42.711Z,2.03
2023-03-26T23:49:12.014Z,1.43
2023-03-26T23:51:40.160Z,1.50
2023-03-26T23:54:08.583Z,2.03
2023-03-26T23:56:36.608Z,2.03
2023-03-26T23:59:06.179Z,1.30
